Altus Air Force Base
KLTS : now visible

Airfield :











YOU CAN JOIN US ON...

 
LOGIN :

Register | Disclaimer

   EN    FR    IT 

 









Legend :    VFR   Marginal VFR   IFR   Intensive IFR   Very Intensive IFR
Visi :
Ceiling :
>= 8 km
>= 3000ft
5 to 8 km
1000 to 3000 ft
1500m to 5 km
500 to 1000 ft
800 to 1500m
200 to 500 ft
< 800m
< 200 ft
Symbols :   Thunderstorms  Fog  Heavy snow  Heavy precipitations  Wind > 20 kt






- Airport Elevation : 1382 ft


KLTS - Altus Air Force Base

CURRENT METAR :
  • 060256Z AUTO 14014KT 10SM OVC024 16/13 A2996 RMK AO2 OVC V BKN CIG 023 RWY35R SLP142 T01620133 53008 $

EXPIRED METARs :
  • 060241Z AUTO 14010KT 10SM BKN024 OVC036 17/14 A2996 RMK AO2 SLP142 $
  • 060156Z AUTO 13008KT 10SM BKN027 OVC042 17/13 A2994 RMK AO2 BKN V OVC SLP135 T01660133 $
  • 060111Z AUTO 12010KT 10SM BKN027 OVC040 17/13 A2993 RMK AO2 CIG 027V040 BKN V FEW SLP133 $
  • 060056Z AUTO 14009KT 10SM OVC039 17/13 A2993 RMK AO2 SLP133 T01720131 $

Expired Forecast.



MET'MAP, your aeronautical weather chart ! - Copyright ORBIFLY December 2007 - Disclaimer

ORBIFLY MET'MAP TEAM :

Programming & Development : Alexandra Zaïnal
Concept & original design : Baudouin d'Aumeries
Assistance for programming : Marc-Olivier Méhu
Technical & hardware support : Manuel Goepfert

Contact : metmap@orbifly.com




SOURCES & CREDITS :

   NOAA       Earth
Advisory